createdAt,value
2017-10-19T00:00:09.390Z,92.67
2017-10-19T00:02:41.712Z,93.63
2017-10-19T00:05:38.406Z,92.06
2017-10-19T00:08:15.891Z,92.62
2017-10-19T00:10:45.905Z,92.92
2017-10-19T00:13:15.881Z,91.84
2017-10-19T00:15:44.978Z,92.90
2017-10-19T00:18:15.977Z,93.97
2017-10-19T00:20:45.043Z,92.44
2017-10-19T00:23:18.817Z,94.07
2017-10-19T00:25:47.856Z,95.29
2017-10-19T00:28:18.847Z,93.04
2017-10-19T00:30:48.926Z,95.26
2017-10-19T00:33:18.943Z,94.88
2017-10-19T00:35:47.991Z,94.32
2017-10-19T00:38:17.115Z,94.07
2017-10-19T00:40:47.056Z,93.43
2017-10-19T00:43:32.807Z,92.03
2017-10-19T00:46:03.777Z,90.83
2017-10-19T00:48:32.910Z,91.36
2017-10-19T00:51:30.112Z,91.37
2017-10-19T00:53:59.163Z,93.28
2017-10-19T00:56:40.759Z,94.04
2017-10-19T00:59:11.749Z,91.87
2017-10-19T01:01:44.101Z,92.84
2017-10-19T01:04:25.926Z,91.61
2017-10-19T01:06:54.967Z,90.23
2017-10-19T01:09:38.881Z,90.56
2017-10-19T01:12:12.170Z,91.24
2017-10-19T01:14:42.197Z,90.68
2017-10-19T01:17:28.935Z,91.52
2017-10-19T01:19:57.976Z,91.72
2017-10-19T01:22:40.208Z,92.19
2017-10-19T01:25:24.295Z,94.66
2017-10-19T01:27:53.353Z,96.66
2017-10-19T01:30:23.287Z,96.83
2017-10-19T01:32:53.255Z,97.59
2017-10-19T01:35:30.418Z,97.81
2017-10-19T01:37:59.471Z,97.21
2017-10-19T01:40:41.468Z,96.51
2017-10-19T01:43:23.399Z,96.73
2017-10-19T01:45:52.483Z,96.41
2017-10-19T01:48:40.305Z,95.35
2017-10-19T01:51:13.732Z,96.45
2017-10-19T01:53:43.835Z,97.65
2017-10-19T01:56:16.036Z,96.50
2017-10-19T01:58:45.083Z,97.10
2017-10-19T02:01:21.451Z,96.15
2017-10-19T02:03:51.493Z,96.13
2017-10-19T02:06:20.548Z,96.45
2017-10-19T02:08:50.369Z,97.01
2017-10-19T02:11:19.416Z,95.63
2017-10-19T02:13:48.558Z,96.50
2017-10-19T02:16:20.653Z,98.03
2017-10-19T02:18:49.703Z,97.60
2017-10-19T02:21:19.693Z,97.15
2017-10-19T02:23:48.738Z,96.19
2017-10-19T02:26:17.834Z,96.28
2017-10-19T02:28:46.910Z,96.66
2017-10-19T02:31:23.776Z,96.83
2017-10-19T02:33:52.819Z,97.59
2017-10-19T02:36:39.499Z,98.17
2017-10-19T02:39:08.540Z,98.52
2017-10-19T02:41:40.790Z,97.59
2017-10-19T02:44:09.840Z,97.69
2017-10-19T02:46:39.802Z,97.44
2017-10-19T02:49:12.086Z,98.29
2017-10-19T02:51:41.172Z,97.93
2017-10-19T02:54:10.247Z,97.56
2017-10-19T02:56:40.201Z,96.67
2017-10-19T02:59:24.673Z,96.01
2017-10-19T03:01:53.739Z,95.54
2017-10-19T03:04:35.971Z,95.60
2017-10-19T03:07:14.380Z,95.46
2017-10-19T03:09:43.455Z,94.76
2017-10-19T03:12:20.622Z,95.24
2017-10-19T03:14:51.291Z,96.44
2017-10-19T03:17:39.642Z,95.39
2017-10-19T03:20:10.556Z,95.93
2017-10-19T03:22:40.569Z,97.09
2017-10-19T03:25:23.956Z,97.83
2017-10-19T03:27:53.119Z,98.01
2017-10-19T03:30:26.492Z,97.77
2017-10-19T03:32:55.543Z,97.63
2017-10-19T03:35:24.600Z,96.74
2017-10-19T03:37:53.653Z,95.41
2017-10-19T03:40:27.299Z,95.72
2017-10-19T03:42:56.326Z,97.42
2017-10-19T03:45:40.166Z,97.18
2017-10-19T03:48:11.155Z,97.06
2017-10-19T03:50:40.214Z,97.01
2017-10-19T03:53:40.055Z,97.03
2017-10-19T03:56:09.120Z,97.15
2017-10-19T03:58:41.751Z,97.70
2017-10-19T04:01:11.041Z,97.83
2017-10-19T04:03:41.132Z,98.23
2017-10-19T04:06:14.014Z,97.66
2017-10-19T04:08:43.108Z,97.20
2017-10-19T04:11:15.851Z,97.08
2017-10-19T04:13:57.626Z,96.97
2017-10-19T04:16:40.457Z,96.97
2017-10-19T04:19:17.731Z,97.91
2017-10-19T04:21:46.780Z,98.15
2017-10-19T04:24:26.628Z,97.15
2017-10-19T04:26:55.668Z,96.02
2017-10-19T04:29:41.654Z,95.45
2017-10-19T04:32:36.897Z,96.55
2017-10-19T04:35:16.400Z,98.74
2017-10-19T04:37:45.444Z,99.70
2017-10-19T04:40:15.529Z,99.72
2017-10-19T04:42:44.611Z,98.74
2017-10-19T04:45:13.661Z,96.94
2017-10-19T04:47:42.704Z,96.21
2017-10-19T04:50:11.766Z,95.21
2017-10-19T04:52:40.826Z,94.58
2017-10-19T04:55:26.791Z,93.92
2017-10-19T04:57:55.852Z,94.27
2017-10-19T05:00:24.917Z,94.09
2017-10-19T05:02:53.963Z,94.35
2017-10-19T05:05:27.172Z,94.28
2017-10-19T05:07:56.208Z,96.34
2017-10-19T05:10:26.184Z,97.13
2017-10-19T05:12:56.152Z,97.08
2017-10-19T05:15:26.234Z,96.15
2017-10-19T05:17:55.293Z,96.49
2017-10-19T05:20:36.524Z,96.64
2017-10-19T05:23:06.471Z,95.91
2017-10-19T05:25:39.776Z,97.08
2017-10-19T05:28:15.802Z,97.32
2017-10-19T05:30:44.874Z,96.87
2017-10-19T05:33:13.959Z,96.69
2017-10-19T05:35:43.941Z,97.93
2017-10-19T05:38:13.966Z,98.33
2017-10-19T05:40:43.050Z,98.23
2017-10-19T05:43:25.634Z,96.84
2017-10-19T05:45:55.637Z,95.19
2017-10-19T05:48:33.045Z,95.38
2017-10-19T05:51:15.795Z,95.59
2017-10-19T05:53:45.746Z,95.58
2017-10-19T05:56:16.725Z,95.44
2017-10-19T05:58:45.799Z,95.24
2017-10-19T06:01:15.829Z,94.90
2017-10-19T06:03:44.932Z,95.19
2017-10-19T06:06:39.200Z,95.55
2017-10-19T06:09:17.082Z,95.98
2017-10-19T06:11:46.133Z,94.58
2017-10-19T06:14:19.775Z,95.13
2017-10-19T06:16:48.830Z,95.41
2017-10-19T06:19:21.775Z,96.37
2017-10-19T06:21:57.118Z,96.78
2017-10-19T06:24:26.206Z,96.19
2017-10-19T06:27:15.006Z,95.34
2017-10-19T06:30:05.093Z,95.85
2017-10-19T06:32:34.161Z,95.28
2017-10-19T06:35:14.860Z,95.99
2017-10-19T06:37:47.794Z,95.93
2017-10-19T06:40:16.884Z,95.86
2017-10-19T06:42:50.887Z,95.88
2017-10-19T06:45:20.902Z,96.07
2017-10-19T06:47:49.949Z,97.42
2017-10-19T06:50:19.007Z,97.03
2017-10-19T06:52:51.022Z,96.43
2017-10-19T06:55:20.068Z,95.80
2017-10-19T06:57:53.324Z,95.44
2017-10-19T07:00:26.404Z,94.94
2017-10-19T07:02:55.482Z,94.48
2017-10-19T07:05:24.562Z,94.07
2017-10-19T07:07:53.819Z,94.02
2017-10-19T07:10:26.685Z,93.61
2017-10-19T07:12:55.760Z,93.72
2017-10-19T07:15:33.640Z,92.07
2017-10-19T07:18:09.706Z,91.69
2017-10-19T07:20:38.763Z,93.00
2017-10-19T07:23:17.677Z,92.15
2017-10-19T07:25:57.085Z,91.45
2017-10-19T07:28:26.112Z,90.79
2017-10-19T07:31:11.819Z,90.30
2017-10-19T07:33:40.896Z,90.23
2017-10-19T07:36:23.732Z,88.90
2017-10-19T07:39:02.399Z,87.99
2017-10-19T07:41:31.570Z,87.82
2017-10-19T07:44:02.506Z,86.99
2017-10-19T07:46:31.797Z,85.70
2017-10-19T07:49:02.749Z,85.53
2017-10-19T07:51:31.815Z,85.14
2017-10-19T07:54:02.870Z,85.05
2017-10-19T07:56:35.579Z,85.07
2017-10-19T07:59:16.958Z,83.77
2017-10-19T08:01:58.825Z,82.19
2017-10-19T08:04:27.898Z,81.91
2017-10-19T08:06:57.012Z,81.50
2017-10-19T08:09:26.066Z,79.27
2017-10-19T08:11:57.035Z,78.73
2017-10-19T08:14:26.088Z,76.07
2017-10-19T08:17:03.665Z,78.98
2017-10-19T08:19:34.306Z,75.86
2017-10-19T08:22:22.327Z,75.56
2017-10-19T08:24:59.709Z,74.45
2017-10-19T08:27:29.727Z,72.92
2017-10-19T08:30:01.710Z,71.50
2017-10-19T08:32:30.766Z,73.86
2017-10-19T08:34:59.836Z,70.66
2017-10-19T08:37:28.882Z,69.54
2017-10-19T08:40:22.223Z,65.58
2017-10-19T08:42:55.486Z,64.22
2017-10-19T08:45:24.524Z,61.85
2017-10-19T08:47:57.222Z,56.78
2017-10-19T08:50:26.284Z,51.61
2017-10-19T08:52:59.798Z,47.12
2017-10-19T08:55:28.851Z,45.18
2017-10-19T08:58:01.621Z,46.61
2017-10-19T09:00:30.704Z,45.07
2017-10-19T09:03:04.203Z,30.93
2017-10-19T09:05:34.084Z,39.58
2017-10-19T09:08:06.791Z,38.59
2017-10-19T09:10:36.389Z,35.68
2017-10-19T09:13:05.464Z,35.47
2017-10-19T09:15:35.858Z,37.69
2017-10-19T09:18:13.120Z,35.84
2017-10-19T09:21:03.052Z,37.20
2017-10-19T09:23:32.104Z,33.95
2017-10-19T09:26:04.951Z,33.70
2017-10-19T09:28:34.029Z,23.90
2017-10-19T09:31:05.641Z,29.58
2017-10-19T09:33:35.694Z,26.58
2017-10-19T09:36:09.877Z,25.50
2017-10-19T09:38:38.931Z,34.59
2017-10-19T09:41:22.444Z,33.02
2017-10-19T09:43:59.705Z,22.37
2017-10-19T09:46:28.747Z,24.94
2017-10-19T09:48:59.760Z,27.79
2017-10-19T09:51:28.845Z,27.84
2017-10-19T09:54:11.188Z,26.35
2017-10-19T09:56:40.263Z,21.34
2017-10-19T09:59:21.428Z,27.19
2017-10-19T10:02:21.124Z,26.35
2017-10-19T10:05:06.706Z,26.84
2017-10-19T10:07:35.750Z,24.47
2017-10-19T10:10:21.835Z,25.08
2017-10-19T10:13:00.376Z,25.56
2017-10-19T10:15:29.825Z,24.03
2017-10-19T10:17:59.771Z,23.14
2017-10-19T10:27:09.000Z,21.50
2017-10-19T10:29:38.051Z,23.24
2017-10-19T10:32:19.818Z,22.97
2017-10-19T10:34:48.926Z,22.39
2017-10-19T10:37:17.967Z,20.42
2017-10-19T10:39:47.038Z,21.94
2017-10-19T10:42:16.205Z,17.96
2017-10-19T10:44:46.232Z,21.06
2017-10-19T10:47:15.281Z,20.52
2017-10-19T10:49:44.326Z,20.82
2017-10-19T10:52:13.371Z,20.58
2017-10-19T10:54:42.436Z,19.20
2017-10-19T10:57:11.499Z,19.58
2017-10-19T10:59:40.540Z,19.88
2017-10-19T11:02:10.543Z,20.12
2017-10-19T11:04:40.051Z,19.26
2017-10-19T11:07:09.591Z,19.25
2017-10-19T11:09:38.647Z,19.65
2017-10-19T11:12:07.694Z,18.34
2017-10-19T11:14:36.802Z,17.78
2017-10-19T11:17:05.860Z,19.10
2017-10-19T11:19:34.911Z,18.79
2017-10-19T11:22:03.956Z,18.37
2017-10-19T11:24:33.039Z,18.09
2017-10-19T11:27:02.071Z,17.48
2017-10-19T11:29:31.115Z,17.49
2017-10-19T11:32:00.180Z,18.87
2017-10-19T11:34:29.234Z,18.87
2017-10-19T11:36:58.283Z,19.34
2017-10-19T11:39:27.331Z,18.54
2017-10-19T11:41:56.440Z,19.26
2017-10-19T11:44:25.495Z,18.40
2017-10-19T11:46:54.545Z,18.58
2017-10-19T11:49:23.601Z,18.64
2017-10-19T11:51:52.656Z,18.76
2017-10-19T11:54:21.707Z,18.94
2017-10-19T11:56:50.791Z,18.55
2017-10-19T11:59:19.821Z,18.50
2017-10-19T12:01:48.875Z,18.41
2017-10-19T12:04:17.945Z,18.23
2017-10-19T12:06:46.991Z,18.64
2017-10-19T12:09:16.038Z,19.02
2017-10-19T12:11:46.049Z,18.95
2017-10-19T12:14:15.122Z,18.80
2017-10-19T12:16:44.166Z,18.43
2017-10-19T12:19:13.211Z,18.97
2017-10-19T12:21:42.259Z,19.59
2017-10-19T12:24:11.449Z,18.88
2017-10-19T12:26:40.493Z,18.39
2017-10-19T12:29:10.055Z,18.44
2017-10-19T12:31:39.114Z,18.22
2017-10-19T12:34:08.987Z,18.68
2017-10-19T12:36:39.053Z,18.50
2017-10-19T12:39:08.112Z,18.58
2017-10-19T12:41:37.156Z,18.10
2017-10-19T12:44:06.507Z,18.95
2017-10-19T12:46:35.644Z,18.52
2017-10-19T12:49:06.348Z,18.42
2017-10-19T12:51:35.680Z,18.79
2017-10-19T12:54:04.752Z,18.93
2017-10-19T12:56:33.788Z,19.40
2017-10-19T12:59:03.797Z,19.45
2017-10-19T13:01:32.834Z,19.98
2017-10-19T13:04:01.879Z,19.93
2017-10-19T13:06:30.930Z,20.08
2017-10-19T13:08:59.977Z,20.30
2017-10-19T13:11:29.151Z,20.60
2017-10-19T13:13:58.179Z,20.62
2017-10-19T13:16:26.544Z,21.00
2017-10-19T13:18:54.898Z,20.27
2017-10-19T13:21:23.259Z,20.62
2017-10-19T13:23:52.307Z,21.62
2017-10-19T13:26:21.371Z,21.47
2017-10-19T13:28:51.423Z,21.21
2017-10-19T13:31:27.075Z,22.09
2017-10-19T13:33:56.146Z,22.80
2017-10-19T13:36:25.187Z,22.69
2017-10-19T13:38:54.287Z,22.29
2017-10-19T13:41:23.329Z,22.23
2017-10-19T13:43:52.384Z,21.53
2017-10-19T13:46:25.573Z,21.01
2017-10-19T13:48:54.967Z,20.26
2017-10-19T13:51:24.435Z,19.69
2017-10-19T13:53:53.483Z,19.12
2017-10-19T13:56:22.522Z,19.15
2017-10-19T13:58:51.571Z,19.33
2017-10-19T14:01:20.622Z,19.92
2017-10-19T14:03:51.616Z,19.67
2017-10-19T14:06:20.660Z,19.33
2017-10-19T14:08:49.715Z,19.03
2017-10-19T14:11:18.762Z,19.59
2017-10-19T14:13:50.083Z,19.93
2017-10-19T14:16:19.157Z,19.84
2017-10-19T14:18:48.206Z,20.12
2017-10-19T14:21:17.275Z,19.87
2017-10-19T14:23:46.824Z,20.41
2017-10-19T14:26:16.017Z,20.84
2017-10-19T14:28:45.187Z,21.05
2017-10-19T14:31:14.314Z,21.09
2017-10-19T14:33:43.412Z,21.58
2017-10-19T14:36:12.467Z,21.85
2017-10-19T14:38:42.514Z,22.00
2017-10-19T14:41:11.786Z,22.53
2017-10-19T14:43:40.814Z,23.32
2017-10-19T14:46:10.704Z,24.13
2017-10-19T14:48:40.728Z,25.95
2017-10-19T14:51:10.338Z,25.41
2017-10-19T14:53:39.541Z,28.83
2017-10-19T14:56:15.215Z,26.13
2017-10-19T14:58:44.734Z,26.63
2017-10-19T15:01:13.800Z,27.38
2017-10-19T15:03:42.860Z,28.01
2017-10-19T15:06:11.911Z,28.49
2017-10-19T15:08:40.942Z,29.86
2017-10-19T15:11:11.070Z,31.85
2017-10-19T15:13:40.135Z,30.76
2017-10-19T15:16:09.995Z,31.89
2017-10-19T15:18:39.229Z,34.16
2017-10-19T15:21:08.973Z,33.50
2017-10-19T15:23:38.013Z,36.18
2017-10-19T15:26:07.278Z,35.47
2017-10-19T15:28:36.343Z,35.23
2017-10-19T15:31:05.412Z,35.82
2017-10-19T15:33:34.439Z,37.41
2017-10-19T15:36:03.496Z,39.28
2017-10-19T15:38:32.548Z,37.57
2017-10-19T15:41:01.603Z,38.86
2017-10-19T15:43:30.665Z,39.12
2017-10-19T15:45:59.711Z,39.24
2017-10-19T15:48:28.768Z,40.43
2017-10-19T15:51:14.737Z,41.45
2017-10-19T15:53:43.791Z,41.57
2017-10-19T15:56:12.926Z,43.73
2017-10-19T15:58:41.967Z,42.50
2017-10-19T16:01:11.033Z,43.63
2017-10-19T16:03:40.079Z,44.09
2017-10-19T16:06:09.123Z,48.63
2017-10-19T16:08:38.180Z,50.83
2017-10-19T16:11:07.258Z,55.39
2017-10-19T16:13:36.294Z,49.80
2017-10-19T16:16:05.355Z,51.33
2017-10-19T16:18:34.384Z,51.05
2017-10-19T16:21:03.451Z,52.24
2017-10-19T16:23:32.512Z,54.15
2017-10-19T16:26:01.599Z,59.36
2017-10-19T16:28:30.646Z,55.48
2017-10-19T16:30:59.698Z,55.70
2017-10-19T16:33:28.738Z,56.32
2017-10-19T16:35:57.784Z,54.25
2017-10-19T16:38:26.899Z,58.21
2017-10-19T16:40:56.051Z,61.25
2017-10-19T16:43:25.092Z,62.14
2017-10-19T16:45:54.207Z,60.85
2017-10-19T16:48:24.253Z,61.57
2017-10-19T16:50:53.298Z,56.82
2017-10-19T16:53:22.362Z,65.47
2017-10-19T16:55:51.415Z,60.58
2017-10-19T16:58:20.464Z,62.14
2017-10-19T17:00:53.970Z,65.00
2017-10-19T17:03:23.012Z,65.92
2017-10-19T17:05:52.111Z,71.14
2017-10-19T17:08:21.168Z,69.73
2017-10-19T17:10:50.210Z,72.86
2017-10-19T17:13:19.307Z,73.06
2017-10-19T17:15:48.371Z,67.25
2017-10-19T17:18:17.440Z,65.69
2017-10-19T17:20:46.484Z,63.29
2017-10-19T17:23:15.545Z,65.14
2017-10-19T17:25:44.618Z,64.78
2017-10-19T17:28:13.668Z,67.39
2017-10-19T17:30:42.712Z,71.33
2017-10-19T17:33:11.787Z,76.81
2017-10-19T17:35:43.590Z,68.08
2017-10-19T17:38:12.663Z,68.26
2017-10-19T17:40:41.719Z,69.47
2017-10-19T17:43:10.763Z,69.77
2017-10-19T17:45:39.820Z,70.95
2017-10-19T17:48:08.898Z,68.88
2017-10-19T17:50:37.935Z,76.61
2017-10-19T17:53:06.989Z,73.29
2017-10-19T17:55:36.133Z,73.60
2017-10-19T17:58:05.196Z,73.52
2017-10-19T18:00:34.294Z,75.66
2017-10-19T18:03:03.327Z,70.45
2017-10-19T18:05:32.575Z,75.80
2017-10-19T18:08:01.631Z,72.29
2017-10-19T18:10:30.679Z,70.83
2017-10-19T18:12:59.827Z,68.82
2017-10-19T18:15:28.924Z,71.50
2017-10-19T18:17:57.985Z,70.18
2017-10-19T18:20:27.961Z,73.67
2017-10-19T18:22:57.051Z,72.76
2017-10-19T18:25:26.124Z,78.20
2017-10-19T18:27:55.166Z,74.40
2017-10-19T18:30:24.241Z,74.69
2017-10-19T18:32:53.267Z,72.80
2017-10-19T18:35:23.183Z,71.63
2017-10-19T18:37:57.350Z,72.01
2017-10-19T18:40:26.747Z,74.98
2017-10-19T18:42:55.789Z,73.16
2017-10-19T18:45:24.870Z,74.78
2017-10-19T18:47:53.930Z,79.90
2017-10-19T18:50:23.023Z,77.76
2017-10-19T18:52:52.054Z,74.01
2017-10-19T18:55:22.936Z,75.99
2017-10-19T18:57:51.999Z,77.52
2017-10-19T19:00:21.233Z,75.28
2017-10-19T19:02:50.465Z,75.48
2017-10-19T19:05:19.484Z,81.25
2017-10-19T19:07:48.538Z,76.54
2017-10-19T19:10:17.588Z,77.59
2017-10-19T19:12:47.662Z,76.67
2017-10-19T19:15:16.865Z,76.91
2017-10-19T19:17:45.923Z,79.76
2017-10-19T19:20:15.123Z,76.66
2017-10-19T19:22:44.167Z,78.46
2017-10-19T19:25:13.316Z,75.76
2017-10-19T19:30:23.544Z,78.08
2017-10-19T19:32:52.651Z,77.82
2017-10-19T19:35:22.238Z,77.06
2017-10-19T19:37:51.322Z,78.43
2017-10-19T19:40:20.439Z,78.88
2017-10-19T19:42:49.495Z,80.96
2017-10-19T19:45:18.534Z,83.81
2017-10-19T19:47:47.586Z,79.84
2017-10-19T19:50:16.665Z,77.98
2017-10-19T19:52:46.651Z,82.25
2017-10-19T19:55:15.692Z,79.44
2017-10-19T19:57:44.794Z,80.32
2017-10-19T20:00:13.888Z,79.49
2017-10-19T20:02:42.959Z,78.61
2017-10-19T20:05:12.036Z,80.52
2017-10-19T20:07:41.101Z,82.84
2017-10-19T20:10:10.126Z,80.17
2017-10-19T20:12:41.207Z,79.34
2017-10-19T20:15:11.204Z,79.14
2017-10-19T20:17:40.297Z,77.95
2017-10-19T20:20:09.327Z,76.20
2017-10-19T20:22:38.366Z,83.99
2017-10-19T20:25:07.433Z,83.99
2017-10-19T20:27:37.797Z,80.85
2017-10-19T20:30:16.066Z,81.30
2017-10-19T20:32:45.120Z,79.56
2017-10-19T20:35:14.127Z,81.17
2017-10-19T20:37:43.170Z,77.72
2017-10-19T20:40:12.214Z,83.33
2017-10-19T20:42:41.244Z,80.78
2017-10-19T20:45:10.298Z,79.78
2017-10-19T20:47:39.347Z,79.67
2017-10-19T20:50:08.390Z,79.70
2017-10-19T20:52:37.434Z,79.79
2017-10-19T20:55:06.527Z,81.80
2017-10-19T20:57:35.635Z,80.15
2017-10-19T21:00:04.655Z,79.20
2017-10-19T21:02:33.689Z,81.38
2017-10-19T21:05:02.783Z,80.63
2017-10-19T21:07:31.826Z,80.24
2017-10-19T21:10:00.855Z,80.09
2017-10-19T21:12:29.890Z,80.87
2017-10-19T21:15:00.844Z,80.47
2017-10-19T21:17:29.874Z,84.83
2017-10-19T21:19:58.929Z,82.27
2017-10-19T21:22:34.129Z,82.94
2017-10-19T21:25:03.437Z,83.52
2017-10-19T21:27:32.704Z,81.77
2017-10-19T21:30:01.745Z,80.10
2017-10-19T21:32:30.779Z,84.61
2017-10-19T21:34:59.831Z,86.28
2017-10-19T21:37:28.867Z,87.35
2017-10-19T21:39:57.912Z,83.54
2017-10-19T21:42:26.942Z,83.73
2017-10-19T21:44:55.995Z,81.95
2017-10-19T21:47:25.048Z,82.13
2017-10-19T21:49:54.068Z,81.86
2017-10-19T21:52:23.096Z,82.48
2017-10-19T21:54:52.115Z,81.89
2017-10-19T21:57:21.155Z,83.20
2017-10-19T21:59:50.188Z,83.40
2017-10-19T22:02:19.218Z,83.09
2017-10-19T22:04:48.283Z,82.97
2017-10-19T22:07:18.305Z,82.78
2017-10-19T22:09:47.338Z,83.59
2017-10-19T22:12:16.397Z,84.91
2017-10-19T22:14:45.444Z,88.73
2017-10-19T22:17:14.477Z,85.35
2017-10-19T22:19:43.509Z,86.23
2017-10-19T22:22:12.542Z,84.35
2017-10-19T22:24:41.626Z,84.56
2017-10-19T22:27:10.664Z,86.73
2017-10-19T22:29:39.711Z,84.70
2017-10-19T22:32:09.651Z,85.60
2017-10-19T22:34:52.066Z,90.78
2017-10-19T22:37:21.327Z,90.06
2017-10-19T22:39:50.365Z,88.10
2017-10-19T22:42:19.405Z,85.84
2017-10-19T22:44:48.455Z,86.32
2017-10-19T22:47:17.515Z,88.14
2017-10-19T22:49:46.568Z,87.51
2017-10-19T22:52:15.614Z,84.50
2017-10-19T22:54:44.686Z,86.30
2017-10-19T22:57:14.728Z,85.22
2017-10-19T22:59:43.774Z,85.49
2017-10-19T23:02:12.816Z,85.45
2017-10-19T23:04:41.857Z,85.27
2017-10-19T23:07:10.898Z,88.41
2017-10-19T23:09:39.970Z,86.36
2017-10-19T23:12:09.944Z,87.35
2017-10-19T23:14:38.978Z,88.64
2017-10-19T23:17:08.030Z,88.26
2017-10-19T23:19:37.080Z,87.12
2017-10-19T23:22:07.054Z,87.70
2017-10-19T23:24:36.086Z,88.95
2017-10-19T23:27:05.151Z,87.33
2017-10-19T23:29:34.203Z,87.05
2017-10-19T23:32:03.243Z,86.92
2017-10-19T23:34:32.290Z,87.56
2017-10-19T23:37:01.339Z,87.75
2017-10-19T23:39:30.366Z,86.35
2017-10-19T23:41:59.397Z,86.45
2017-10-19T23:44:28.440Z,86.37
2017-10-19T23:46:57.480Z,86.25
2017-10-19T23:49:26.528Z,86.61
2017-10-19T23:51:55.579Z,86.62
2017-10-19T23:54:24.627Z,86.39
2017-10-19T23:56:53.684Z,86.53
2017-10-19T23:59:22.728Z,87.90
